createdAt,value
2022-11-13T00:00:15.447Z,2.4
2022-11-13T00:01:14.919Z,2.4
2022-11-13T00:02:15.496Z,2.4
2022-11-13T00:03:15.170Z,2.4
2022-11-13T00:04:15.361Z,2.4
2022-11-13T00:05:14.858Z,2.4
2022-11-13T00:06:15.144Z,2.4
2022-11-13T00:07:15.117Z,2.4
2022-11-13T00:08:14.990Z,2.4
2022-11-13T00:09:15.390Z,2.4
2022-11-13T00:10:15.684Z,2
2022-11-13T00:11:15.380Z,2.3
2022-11-13T00:12:14.956Z,2
2022-11-13T00:13:15.057Z,2.3
2022-11-13T00:14:15.465Z,2.3
2022-11-13T00:15:14.839Z,2.3
2022-11-13T00:16:15.238Z,2.3
2022-11-13T00:17:15.383Z,2.3
2022-11-13T00:18:14.015Z,2.3
2022-11-13T00:19:15.743Z,2.3
2022-11-13T00:20:15.562Z,2.3
2022-11-13T00:21:15.618Z,2
2022-11-13T00:22:15.505Z,2.3
2022-11-13T00:23:15.052Z,2.3
2022-11-13T00:24:14.924Z,2.3
2022-11-13T00:25:14.915Z,2.3
2022-11-13T00:26:15.483Z,2.3
2022-11-13T00:27:15.724Z,2.3
2022-11-13T00:28:14.936Z,2.3
2022-11-13T00:29:15.732Z,2.2
2022-11-13T00:30:21.762Z,2.2
2022-11-13T00:31:15.317Z,2.2
2022-11-13T00:32:15.654Z,2.2
2022-11-13T00:33:26.685Z,2
2022-11-13T00:34:50.836Z,2
2022-11-13T00:36:15.428Z,2.2
2022-11-13T00:37:14.793Z,2.2
2022-11-13T00:38:15.051Z,2.2
2022-11-13T00:39:15.233Z,2.2
2022-11-13T00:40:15.622Z,2.2
2022-11-13T00:41:15.236Z,2.2
2022-11-13T00:42:15.067Z,2.2
2022-11-13T00:43:15.456Z,2.2
2022-11-13T00:44:14.302Z,2.2
2022-11-13T00:45:15.513Z,2.2
2022-11-13T00:46:15.638Z,2
2022-11-13T00:47:15.284Z,2.2
2022-11-13T00:48:15.156Z,2.2
2022-11-13T00:49:15.473Z,2.2
2022-11-13T00:50:14.954Z,2.2
2022-11-13T00:51:15.099Z,2.2
2022-11-13T00:52:15.617Z,2.2
2022-11-13T00:53:21.938Z,2.2
2022-11-13T00:54:14.940Z,2.1
2022-11-13T00:55:15.692Z,2.1
2022-11-13T00:56:15.049Z,2.2
2022-11-13T00:57:15.385Z,2.2
2022-11-13T00:58:15.721Z,2.2
2022-11-13T00:59:14.823Z,2.2
2022-11-13T01:00:15.385Z,2.2
2022-11-13T01:01:15.503Z,2.1
2022-11-13T01:02:15.528Z,2.1
2022-11-13T01:03:15.329Z,2
2022-11-13T01:04:15.704Z,2.1
2022-11-13T01:05:15.205Z,2.1
2022-11-13T01:06:15.566Z,2.1
2022-11-13T01:07:16.044Z,2.1
2022-11-13T01:08:14.951Z,2.1
2022-11-13T01:09:15.694Z,2
2022-11-13T01:10:15.038Z,2.1
2022-11-13T01:11:15.330Z,2.1
2022-11-13T01:12:14.770Z,2.1
2022-11-13T01:13:15.396Z,2.1
2022-11-13T01:14:15.702Z,2.1
2022-11-13T01:15:15.150Z,2.1
2022-11-13T01:16:15.278Z,2
2022-11-13T01:17:15.402Z,2.1
2022-11-13T01:18:15.504Z,2.1
2022-11-13T01:19:15.212Z,2.1
2022-11-13T01:20:15.596Z,2
2022-11-13T01:21:14.891Z,2
2022-11-13T01:22:15.470Z,2
2022-11-13T01:23:15.532Z,2
2022-11-13T01:24:15.738Z,2
2022-11-13T01:25:15.163Z,2
2022-11-13T01:26:15.464Z,2
2022-11-13T01:27:15.566Z,2
2022-11-13T01:28:14.820Z,2
2022-11-13T01:29:15.233Z,2
2022-11-13T01:30:15.751Z,2
2022-11-13T01:31:14.861Z,2
2022-11-13T01:32:15.272Z,2
2022-11-13T01:33:15.198Z,1
2022-11-13T01:34:15.438Z,2
2022-11-13T01:35:14.404Z,2
2022-11-13T01:36:15.213Z,2
2022-11-13T01:37:15.234Z,2
2022-11-13T01:38:15.746Z,1
2022-11-13T01:39:15.269Z,1
2022-11-13T01:40:15.695Z,2
2022-11-13T01:41:17.838Z,2
2022-11-13T01:42:15.603Z,2
2022-11-13T01:43:15.011Z,2
2022-11-13T01:44:15.395Z,2
2022-11-13T01:45:15.657Z,2
2022-11-13T01:46:15.088Z,2
2022-11-13T01:47:15.213Z,2
2022-11-13T01:48:15.832Z,2
2022-11-13T01:49:15.070Z,2
2022-11-13T01:50:15.359Z,2
2022-11-13T01:51:14.847Z,2
2022-11-13T01:52:15.300Z,2
2022-11-13T01:53:15.564Z,2
2022-11-13T01:54:14.983Z,2
2022-11-13T01:55:15.516Z,1
2022-11-13T01:56:15.778Z,1
2022-11-13T01:57:15.105Z,2
2022-11-13T01:58:15.377Z,2
2022-11-13T01:59:15.711Z,1.9
2022-11-13T02:00:14.707Z,1.9
2022-11-13T02:01:14.790Z,1.9
2022-11-13T02:02:15.154Z,1.9
2022-11-13T02:03:14.600Z,1.9
2022-11-13T02:04:15.204Z,1.9
2022-11-13T02:05:15.069Z,1.9
2022-11-13T02:06:15.415Z,1.9
2022-11-13T02:07:15.116Z,1.9
2022-11-13T02:08:15.738Z,1.9
2022-11-13T02:09:14.863Z,1.9
2022-11-13T02:10:15.312Z,1.9
2022-11-13T02:11:15.681Z,1.9
2022-11-13T02:12:14.895Z,1.9
2022-11-13T02:13:15.149Z,1.9
2022-11-13T02:14:15.564Z,1.9
2022-11-13T02:15:15.644Z,1.8
2022-11-13T02:16:15.078Z,1.8
2022-11-13T02:17:15.267Z,1.8
2022-11-13T02:18:15.801Z,1.8
2022-11-13T02:19:15.114Z,1.8
2022-11-13T02:20:15.550Z,1.8
2022-11-13T02:21:14.814Z,1.8
2022-11-13T02:22:15.501Z,1.8
2022-11-13T02:23:14.738Z,1
2022-11-13T02:24:15.594Z,1.8
2022-11-13T02:25:14.917Z,1.8
2022-11-13T02:26:15.859Z,1.8
2022-11-13T02:27:15.175Z,1.8
2022-11-13T02:28:15.496Z,1.8
2022-11-13T02:29:14.397Z,1.8
2022-11-13T02:30:27.097Z,1.8
2022-11-13T02:31:14.107Z,1.8
2022-11-13T02:32:15.278Z,1.8
2022-11-13T02:33:15.611Z,1.8
2022-11-13T02:34:15.453Z,1.8
2022-11-13T02:35:15.088Z,1.8
2022-11-13T02:36:15.934Z,1.8
2022-11-13T02:37:15.105Z,1.7
2022-11-13T02:38:15.232Z,1.7
2022-11-13T02:39:14.988Z,1.7
2022-11-13T02:40:14.822Z,1.8
2022-11-13T02:41:15.843Z,1.7
2022-11-13T02:42:14.997Z,1.8
2022-11-13T02:43:15.572Z,1
2022-11-13T02:44:14.805Z,1.7
2022-11-13T02:45:15.168Z,1.7
2022-11-13T02:46:15.001Z,1.7
2022-11-13T02:47:15.451Z,1.7
2022-11-13T02:48:15.670Z,1.7
2022-11-13T02:49:15.055Z,1.7
2022-11-13T02:50:15.424Z,1.7
2022-11-13T02:51:15.547Z,1.7
2022-11-13T02:52:16.061Z,1.7
2022-11-13T02:53:15.170Z,1.7
2022-11-13T02:54:20.831Z,1
2022-11-13T02:55:14.870Z,1.7
2022-11-13T02:56:15.354Z,1.7
2022-11-13T02:57:15.664Z,1.7
2022-11-13T02:58:15.711Z,1.7
2022-11-13T02:59:15.304Z,1.7
2022-11-13T03:00:18.265Z,1.7
2022-11-13T03:01:14.500Z,1.6
2022-11-13T03:02:15.333Z,1.6
2022-11-13T03:03:21.263Z,1.6
2022-11-13T03:04:15.028Z,1.6
2022-11-13T03:05:17.223Z,1.6
2022-11-13T03:06:15.399Z,1.6
2022-11-13T03:07:15.538Z,1.6
2022-11-13T03:08:15.556Z,1.6
2022-11-13T03:09:14.777Z,1.6
2022-11-13T03:10:15.805Z,1.6
2022-11-13T03:11:15.042Z,1.6
2022-11-13T03:12:15.613Z,1.6
2022-11-13T03:13:14.842Z,1.6
2022-11-13T03:14:15.074Z,1.6
2022-11-13T03:15:15.361Z,1.5
2022-11-13T03:16:15.519Z,1.5
2022-11-13T03:17:15.010Z,1.5
2022-11-13T03:18:15.230Z,1.5
2022-11-13T03:19:15.596Z,1.5
2022-11-13T03:20:15.043Z,1.5
2022-11-13T03:21:14.819Z,1.4
2022-11-13T03:22:13.942Z,1.4
2022-11-13T03:23:15.652Z,1.4
2022-11-13T03:24:15.141Z,1.4
2022-11-13T03:25:15.550Z,1.4
2022-11-13T03:26:15.484Z,1.4
2022-11-13T03:27:15.437Z,1.4
2022-11-13T03:28:15.910Z,1.4
2022-11-13T03:29:15.141Z,1.4
2022-11-13T03:30:15.354Z,1.4
2022-11-13T03:31:14.247Z,1.3
2022-11-13T03:32:15.735Z,1.3
2022-11-13T03:33:15.017Z,1.3
2022-11-13T03:34:15.355Z,1.3
2022-11-13T03:35:15.598Z,1.3
2022-11-13T03:36:14.891Z,1.3
2022-11-13T03:37:15.319Z,1.2
2022-11-13T03:38:14.846Z,1.2
2022-11-13T03:39:15.231Z,1.2
2022-11-13T03:40:15.378Z,1.2
2022-11-13T03:41:15.691Z,1.2
2022-11-13T03:42:15.095Z,1.2
2022-11-13T03:43:15.408Z,0
2022-11-13T03:44:15.063Z,0
2022-11-13T03:45:15.856Z,1.1
2022-11-13T03:46:15.325Z,1.1
2022-11-13T03:47:14.615Z,1
2022-11-13T03:48:14.717Z,1
2022-11-13T03:49:15.069Z,1
2022-11-13T03:50:14.844Z,1
2022-11-13T03:51:15.580Z,1
2022-11-13T03:52:14.856Z,1.1
2022-11-13T03:53:15.433Z,1
2022-11-13T03:54:14.886Z,1.1
2022-11-13T03:55:17.723Z,0
2022-11-13T03:56:15.835Z,1.1
2022-11-13T03:57:15.788Z,1.1
2022-11-13T03:58:15.202Z,1.1
2022-11-13T03:59:15.207Z,1.1
2022-11-13T04:00:15.592Z,1.1
2022-11-13T04:01:15.676Z,1.1
2022-11-13T04:02:15.176Z,1.1
2022-11-13T04:03:15.218Z,1.2
2022-11-13T04:04:15.315Z,1.1
2022-11-13T04:05:21.561Z,0
2022-11-13T04:06:15.873Z,1.1
2022-11-13T04:07:15.080Z,1.1
2022-11-13T04:08:15.209Z,1.2
2022-11-13T04:09:15.617Z,1.2
2022-11-13T04:10:15.028Z,1.2
2022-11-13T04:11:15.783Z,1.2
2022-11-13T04:12:14.947Z,1.2
2022-11-13T04:13:15.277Z,1.2
2022-11-13T04:14:15.826Z,1.2
2022-11-13T04:15:14.693Z,1.2
2022-11-13T04:16:14.897Z,1.2
2022-11-13T04:17:14.087Z,1.2
2022-11-13T04:18:14.985Z,1.2
2022-11-13T04:19:15.280Z,1.2
2022-11-13T04:20:15.507Z,1.2
2022-11-13T04:21:14.997Z,1.2
2022-11-13T04:22:14.994Z,1.2
2022-11-13T04:23:14.907Z,1.2
2022-11-13T04:24:15.205Z,1.2
2022-11-13T04:25:15.708Z,1.2
2022-11-13T04:26:15.052Z,1.2
2022-11-13T04:27:15.594Z,1.2
2022-11-13T04:28:15.784Z,1.1
2022-11-13T04:29:15.175Z,1.1
2022-11-13T04:30:15.478Z,0
2022-11-13T04:31:15.261Z,1.1
2022-11-13T04:32:15.484Z,1.1
2022-11-13T04:33:15.056Z,1
2022-11-13T04:34:15.631Z,1
2022-11-13T04:35:16.001Z,1
2022-11-13T04:36:15.077Z,1
2022-11-13T04:37:15.514Z,1
2022-11-13T04:38:14.915Z,1
2022-11-13T04:39:15.229Z,1
2022-11-13T04:40:14.231Z,0
2022-11-13T04:41:14.942Z,1
2022-11-13T04:42:15.228Z,1
2022-11-13T04:43:15.249Z,1
2022-11-13T04:44:15.348Z,1
2022-11-13T04:45:15.415Z,1
2022-11-13T04:46:15.458Z,1
2022-11-13T04:47:15.709Z,0.9
2022-11-13T04:48:15.078Z,0.9
2022-11-13T04:49:15.751Z,0.9
2022-11-13T04:50:15.265Z,0.9
2022-11-13T04:51:15.562Z,0.9
2022-11-13T04:52:15.739Z,0.9
2022-11-13T04:53:14.831Z,0.9
2022-11-13T04:54:15.166Z,0.9
2022-11-13T04:55:15.633Z,0.9
2022-11-13T04:56:14.807Z,0.9
2022-11-13T04:57:15.185Z,0
2022-11-13T04:58:15.498Z,0.8
2022-11-13T04:59:15.906Z,0.8
2022-11-13T05:00:14.977Z,0.8
2022-11-13T05:01:15.373Z,0.8
2022-11-13T05:02:14.864Z,0
2022-11-13T05:03:15.245Z,0.8
2022-11-13T05:04:15.090Z,0
2022-11-13T05:05:14.163Z,0
2022-11-13T05:06:15.144Z,0.8
2022-11-13T05:07:15.704Z,0.8
2022-11-13T05:08:13.958Z,0.8
2022-11-13T05:09:15.085Z,0.8
2022-11-13T05:10:15.220Z,0.8
2022-11-13T05:11:15.416Z,0.8
2022-11-13T05:12:15.602Z,0.7
2022-11-13T05:13:15.577Z,0.7
2022-11-13T05:14:15.068Z,0.8
2022-11-13T05:15:15.509Z,0
2022-11-13T05:16:15.107Z,0
2022-11-13T05:17:15.583Z,0.7
2022-11-13T05:18:15.498Z,0.7
2022-11-13T05:19:15.805Z,0
2022-11-13T05:20:15.795Z,0.7
2022-11-13T05:21:14.987Z,0.7
2022-11-13T05:22:15.432Z,0.7
2022-11-13T05:23:15.959Z,0.7
2022-11-13T05:24:14.795Z,0.7
2022-11-13T05:25:15.200Z,0.7
2022-11-13T05:26:15.506Z,0.7
2022-11-13T05:27:21.036Z,0.7
2022-11-13T05:28:15.405Z,0.7
2022-11-13T05:29:14.756Z,0.7
2022-11-13T05:30:15.046Z,0.7
2022-11-13T05:31:15.300Z,0.7
2022-11-13T05:32:15.601Z,0.7
2022-11-13T05:33:13.973Z,0.7
2022-11-13T05:34:15.396Z,0.7
2022-11-13T05:35:15.134Z,0.7
2022-11-13T05:36:14.966Z,0.7
2022-11-13T05:37:15.486Z,0.7
2022-11-13T05:38:15.867Z,0.7
2022-11-13T05:39:15.091Z,0.7
2022-11-13T05:40:15.250Z,0.7
2022-11-13T05:41:15.636Z,0.7
2022-11-13T05:42:14.870Z,0.7
2022-11-13T05:43:15.303Z,0.7
2022-11-13T05:44:15.289Z,0.6
2022-11-13T05:45:15.727Z,0.6
2022-11-13T05:46:15.330Z,0.6
2022-11-13T05:47:15.713Z,0.6
2022-11-13T05:48:14.952Z,0.6
2022-11-13T05:49:15.463Z,0.6
2022-11-13T05:50:14.817Z,0.6
2022-11-13T05:51:15.255Z,0.6
2022-11-13T05:52:15.498Z,0.6
2022-11-13T05:53:15.748Z,0
2022-11-13T05:54:15.324Z,0
2022-11-13T05:55:15.715Z,0.6
2022-11-13T05:56:14.368Z,0.6
2022-11-13T05:57:14.527Z,0.6
2022-11-13T05:58:14.264Z,0.6
2022-11-13T05:59:15.034Z,0.6
2022-11-13T06:00:14.112Z,0.6
2022-11-13T06:01:14.860Z,0.6
2022-11-13T06:02:15.882Z,0.7
2022-11-13T06:03:15.087Z,0.6
2022-11-13T06:04:15.836Z,0.6
2022-11-13T06:05:15.597Z,0.6
2022-11-13T06:06:15.257Z,0.6
2022-11-13T06:07:15.880Z,0
2022-11-13T06:08:15.057Z,0.6
2022-11-13T06:09:15.520Z,0.6
2022-11-13T06:10:15.086Z,0.6
2022-11-13T06:11:15.894Z,0.6
2022-11-13T06:12:15.094Z,0.6
2022-11-13T06:13:15.409Z,0.5
2022-11-13T06:14:15.745Z,0
2022-11-13T06:15:14.891Z,0
2022-11-13T06:16:15.782Z,0.5
2022-11-13T06:17:15.069Z,0.5
2022-11-13T06:18:15.441Z,0.5
2022-11-13T06:19:15.139Z,0.4
2022-11-13T06:20:15.189Z,0.4
2022-11-13T06:21:15.135Z,0.4
2022-11-13T06:22:15.406Z,0.4
2022-11-13T06:23:13.917Z,0.4
2022-11-13T06:24:14.396Z,0.4
2022-11-13T06:25:15.613Z,0.4
2022-11-13T06:26:15.654Z,0.4
2022-11-13T06:27:15.174Z,0.4
2022-11-13T06:28:15.024Z,0.4
2022-11-13T06:29:15.122Z,0.4
2022-11-13T06:30:15.396Z,0.4
2022-11-13T06:31:15.248Z,0.4
2022-11-13T06:32:15.545Z,0.4
2022-11-13T06:33:15.163Z,0.4
2022-11-13T06:34:15.563Z,0.4
2022-11-13T06:35:15.339Z,0.4
2022-11-13T06:36:15.727Z,0.4
2022-11-13T06:37:15.040Z,0
2022-11-13T06:38:15.390Z,0
2022-11-13T06:39:15.408Z,0.4
2022-11-13T06:40:15.534Z,0.4
2022-11-13T06:41:14.915Z,0.4
2022-11-13T06:42:15.564Z,0.4
2022-11-13T06:43:15.917Z,0.5
2022-11-13T06:44:14.981Z,0.5
2022-11-13T06:45:14.913Z,0.4
2022-11-13T06:46:15.250Z,0.5
2022-11-13T06:47:13.884Z,0.5
2022-11-13T06:48:15.168Z,0.5
2022-11-13T06:49:15.583Z,0
2022-11-13T06:50:15.391Z,0.6
2022-11-13T06:51:15.821Z,0.6
2022-11-13T06:52:15.460Z,0.6
2022-11-13T06:53:14.936Z,0.6
2022-11-13T06:54:15.442Z,0.6
2022-11-13T06:55:15.577Z,0.6
2022-11-13T06:56:14.328Z,0.7
2022-11-13T06:57:14.901Z,0.6
2022-11-13T06:58:15.887Z,0.7
2022-11-13T06:59:15.592Z,0.7
2022-11-13T07:00:15.178Z,0.7
2022-11-13T07:01:15.599Z,0.8
2022-11-13T07:02:15.244Z,0.7
2022-11-13T07:03:15.559Z,0.8
2022-11-13T07:04:14.153Z,0.8
2022-11-13T07:05:15.382Z,0.8
2022-11-13T07:06:15.779Z,0.8
2022-11-13T07:07:15.307Z,0.8
2022-11-13T07:08:15.447Z,0.8
2022-11-13T07:09:15.792Z,1
2022-11-13T07:10:15.220Z,0.8
2022-11-13T07:11:15.630Z,0.8
2022-11-13T07:12:14.577Z,0.9
2022-11-13T07:13:14.377Z,0.9
2022-11-13T07:14:15.632Z,1
2022-11-13T07:15:15.974Z,1
2022-11-13T07:16:21.469Z,1
2022-11-13T07:17:15.049Z,1
2022-11-13T07:18:17.208Z,1
2022-11-13T07:19:15.556Z,1
2022-11-13T07:20:15.759Z,1
2022-11-13T07:21:15.764Z,1
2022-11-13T07:22:14.921Z,1
2022-11-13T07:23:15.529Z,1
2022-11-13T07:24:20.883Z,1.1
2022-11-13T07:25:15.586Z,1
2022-11-13T07:26:14.947Z,1
2022-11-13T07:27:15.271Z,1.2
2022-11-13T07:28:15.252Z,1.1
2022-11-13T07:29:15.561Z,1.2
2022-11-13T07:30:15.389Z,1
2022-11-13T07:31:15.697Z,1.2
2022-11-13T07:32:14.996Z,1.2
2022-11-13T07:33:15.178Z,1.2
2022-11-13T07:34:15.625Z,1.3
2022-11-13T07:35:15.034Z,1.3
2022-11-13T07:36:14.375Z,1.3
2022-11-13T07:37:14.359Z,1.4
2022-11-13T07:38:15.690Z,1.4
2022-11-13T07:39:15.184Z,1.4
2022-11-13T07:40:15.329Z,1.4
2022-11-13T07:41:15.402Z,1.5
2022-11-13T07:42:15.584Z,1.5
2022-11-13T07:43:15.035Z,1.5
2022-11-13T07:46:15.324Z,1.6
2022-11-13T07:47:15.663Z,1.6
2022-11-13T07:48:15.163Z,1.7
2022-11-13T07:49:15.479Z,1.7
2022-11-13T07:50:15.794Z,1.8
2022-11-13T07:51:15.109Z,3
2022-11-13T07:52:15.790Z,1.9
2022-11-13T07:53:15.114Z,1.9
2022-11-13T07:54:15.247Z,1.9
2022-11-13T07:55:15.704Z,2
2022-11-13T07:56:17.685Z,2
2022-11-13T07:57:15.199Z,2
2022-11-13T07:58:15.478Z,2.1
2022-11-13T07:59:15.052Z,2.1
2022-11-13T08:00:14.481Z,2.1
2022-11-13T08:01:15.659Z,2.2
2022-11-13T08:02:15.305Z,2.3
2022-11-13T08:03:15.516Z,2.3
2022-11-13T08:04:14.848Z,2.3
2022-11-13T08:05:15.845Z,3
2022-11-13T08:06:15.200Z,2.4
2022-11-13T08:07:15.752Z,2.5
2022-11-13T08:08:15.392Z,2.5
2022-11-13T08:09:15.754Z,2.5
2022-11-13T08:10:15.310Z,2.5
2022-11-13T08:11:15.831Z,2.6
2022-11-13T08:12:14.911Z,2.7
2022-11-13T08:13:15.298Z,2.6
2022-11-13T08:14:15.444Z,2.6
2022-11-13T08:15:17.833Z,2.7
2022-11-13T08:16:15.731Z,2.6
2022-11-13T08:17:15.104Z,2.6
2022-11-13T08:18:15.578Z,2.6
2022-11-13T08:19:15.838Z,2.6
2022-11-13T08:20:15.106Z,2.6
2022-11-13T08:21:19.233Z,2.7
2022-11-13T08:22:15.665Z,2.8
2022-11-13T08:23:15.052Z,2.8
2022-11-13T08:24:14.196Z,2.9
2022-11-13T08:25:15.446Z,2.8
2022-11-13T08:26:15.720Z,2.9
2022-11-13T08:27:15.081Z,2.9
2022-11-13T08:28:17.584Z,2.9
2022-11-13T08:29:15.128Z,2.9
2022-11-13T08:30:15.663Z,2.8
2022-11-13T08:31:14.907Z,2.8
2022-11-13T08:32:15.267Z,2.8
2022-11-13T08:33:15.528Z,2.8
2022-11-13T08:34:15.177Z,2.8
2022-11-13T08:35:24.077Z,2.8
2022-11-13T08:36:15.754Z,2.7
2022-11-13T08:37:14.979Z,2.7
2022-11-13T08:38:15.392Z,2.7
2022-11-13T08:39:15.650Z,2.8
2022-11-13T08:40:15.507Z,2.9
2022-11-13T08:41:15.928Z,3
2022-11-13T08:42:15.283Z,3.2
2022-11-13T08:43:15.750Z,3.2
2022-11-13T08:44:14.870Z,3.3
2022-11-13T08:45:15.362Z,3.5
2022-11-13T08:46:15.888Z,2
2022-11-13T08:47:15.215Z,3.7
2022-11-13T08:48:15.558Z,3.8
2022-11-13T08:49:15.271Z,3.9
2022-11-13T08:50:15.102Z,4
2022-11-13T08:51:15.868Z,4
2022-11-13T08:52:16.069Z,4.1
2022-11-13T08:53:15.502Z,4.1
2022-11-13T08:54:15.571Z,4.2
2022-11-13T08:55:14.934Z,4.2
2022-11-13T08:56:15.375Z,4.2
2022-11-13T08:57:15.521Z,4.4
2022-11-13T08:58:14.887Z,4.4
2022-11-13T08:59:15.399Z,4
2022-11-13T09:00:15.144Z,4.5
2022-11-13T09:01:15.898Z,4.6
2022-11-13T09:02:15.152Z,4.6
2022-11-13T09:03:15.481Z,4.7
2022-11-13T09:04:15.986Z,4.8
2022-11-13T09:05:15.164Z,4.8
2022-11-13T09:06:15.661Z,4.9
2022-11-13T09:07:16.334Z,5
2022-11-13T09:08:15.204Z,5
2022-11-13T09:09:15.457Z,5.1
2022-11-13T09:10:15.935Z,5
2022-11-13T09:11:15.185Z,5.2
2022-11-13T09:12:15.486Z,5.4
2022-11-13T09:13:14.900Z,5.5
2022-11-13T09:14:14.865Z,5.5
2022-11-13T09:15:14.373Z,5.6
2022-11-13T09:16:14.311Z,5.7
2022-11-13T09:17:14.860Z,5.8
2022-11-13T09:18:14.927Z,5.8
2022-11-13T09:19:15.316Z,5.9
2022-11-13T09:20:23.670Z,5.9
2022-11-13T09:21:15.565Z,6
2022-11-13T09:22:15.959Z,6
2022-11-13T09:23:15.291Z,6.1
2022-11-13T09:24:15.816Z,6.2
2022-11-13T09:25:15.102Z,6.2
2022-11-13T09:26:15.291Z,6.2
2022-11-13T09:27:15.708Z,6.4
2022-11-13T09:28:15.616Z,6.4
2022-11-13T09:29:14.970Z,6.4
2022-11-13T09:30:15.487Z,6.4
2022-11-13T09:31:15.195Z,6.5
2022-11-13T09:32:15.442Z,6.6
2022-11-13T09:33:15.925Z,6.6
2022-11-13T09:34:15.270Z,6
2022-11-13T09:35:15.488Z,6.8
2022-11-13T09:36:15.476Z,6.9
2022-11-13T09:37:15.760Z,6
2022-11-13T09:38:15.970Z,7
2022-11-13T09:39:15.560Z,7.2
2022-11-13T09:40:15.810Z,7.2
2022-11-13T09:41:15.632Z,6
2022-11-13T09:42:15.447Z,7.4
2022-11-13T09:43:15.890Z,7.5
2022-11-13T09:44:15.006Z,7.5
2022-11-13T09:45:15.344Z,7.6
2022-11-13T09:46:15.361Z,7.6
2022-11-13T09:47:15.855Z,7.7
2022-11-13T09:48:15.068Z,7.8
2022-11-13T09:49:15.474Z,8
2022-11-13T09:50:15.798Z,8
2022-11-13T09:51:15.107Z,8
2022-11-13T09:52:15.576Z,8.1
2022-11-13T09:53:14.942Z,8.2
2022-11-13T09:54:15.327Z,8.4
2022-11-13T09:55:15.662Z,8.4
2022-11-13T09:56:15.872Z,8.6
2022-11-13T09:57:15.297Z,8.7
2022-11-13T09:58:15.570Z,8.8
2022-11-13T09:59:15.855Z,8.8
2022-11-13T10:00:15.236Z,8.9
2022-11-13T10:01:15.137Z,9
2022-11-13T10:02:14.574Z,9.1
2022-11-13T10:03:15.712Z,9.2
2022-11-13T10:04:18.327Z,9.3
2022-11-13T10:05:15.173Z,9.3
2022-11-13T10:06:14.842Z,9.3
2022-11-13T10:07:15.320Z,9.6
2022-11-13T10:08:15.396Z,9.6
2022-11-13T10:09:15.877Z,8
2022-11-13T10:10:15.282Z,9.7
2022-11-13T10:11:14.978Z,9.7
2022-11-13T10:12:15.221Z,9.8
2022-11-13T10:13:15.860Z,10
2022-11-13T10:14:15.149Z,10
2022-11-13T10:15:15.464Z,10
2022-11-13T10:16:15.315Z,10
2022-11-13T10:17:15.688Z,10.1
2022-11-13T10:18:14.998Z,8
2022-11-13T10:19:15.525Z,8
2022-11-13T10:20:15.581Z,10.3
2022-11-13T10:21:14.984Z,10.4
2022-11-13T10:22:36.922Z,10.4
2022-11-13T10:23:15.728Z,10.5
2022-11-13T10:24:18.544Z,10.5
2022-11-13T10:25:14.455Z,10.6
2022-11-13T10:26:14.708Z,10.7
2022-11-13T10:27:15.129Z,10.8
2022-11-13T10:28:54.853Z,10.9
2022-11-13T10:29:16.003Z,11
2022-11-13T10:30:13.962Z,11
2022-11-13T10:31:14.082Z,11.1
2022-11-13T10:32:15.351Z,11.2
2022-11-13T10:33:15.534Z,11.2
2022-11-13T10:34:15.913Z,11.3
2022-11-13T10:35:15.474Z,11.3
2022-11-13T10:36:15.290Z,11.5
2022-11-13T10:37:15.121Z,11.5
2022-11-13T10:38:15.428Z,11.6
2022-11-13T10:39:15.475Z,11.6
2022-11-13T10:40:15.567Z,11.7
2022-11-13T10:41:15.672Z,11.7
2022-11-13T10:42:15.132Z,11.8
2022-11-13T10:43:15.229Z,11.8
2022-11-13T10:44:15.463Z,11.8
2022-11-13T10:45:16.682Z,12
2022-11-13T10:46:15.460Z,9
2022-11-13T10:47:15.892Z,12.2
2022-11-13T10:48:15.420Z,12.2
2022-11-13T10:49:15.743Z,12.2
2022-11-13T10:50:15.116Z,12.3
2022-11-13T10:51:15.745Z,12.3
2022-11-13T10:52:15.761Z,12.2
2022-11-13T10:53:15.365Z,12.3
2022-11-13T10:54:15.622Z,12.4
2022-11-13T10:55:15.895Z,12.4
2022-11-13T10:56:15.086Z,12.5
2022-11-13T10:57:14.437Z,10
2022-11-13T10:58:15.227Z,10
2022-11-13T10:59:15.543Z,12.6
2022-11-13T11:00:15.066Z,12.8
2022-11-13T11:01:15.807Z,12.8
2022-11-13T11:02:14.965Z,12.8
2022-11-13T11:03:15.425Z,12.8
2022-11-13T11:04:15.264Z,13
2022-11-13T11:05:15.404Z,13
2022-11-13T11:06:15.676Z,13
2022-11-13T11:07:25.180Z,13
2022-11-13T11:08:15.721Z,13.2
2022-11-13T11:09:15.306Z,13.2
2022-11-13T11:10:15.689Z,13.2
2022-11-13T11:11:15.652Z,13.4
2022-11-13T11:12:14.989Z,13.4
2022-11-13T11:13:15.341Z,13.5
2022-11-13T11:14:15.806Z,13.6
2022-11-13T11:15:15.993Z,13.6
2022-11-13T11:16:15.861Z,13.7
2022-11-13T11:17:15.663Z,13.8
2022-11-13T11:18:14.915Z,13.8
2022-11-13T11:19:15.193Z,13.9
2022-11-13T11:20:15.693Z,14
2022-11-13T11:21:15.400Z,10
2022-11-13T11:22:15.625Z,14
2022-11-13T11:23:15.619Z,14
2022-11-13T11:24:15.663Z,14.1
2022-11-13T11:25:15.506Z,14.2
2022-11-13T11:26:15.918Z,14.2
2022-11-13T11:27:15.261Z,14.2
2022-11-13T11:28:14.984Z,14.2
2022-11-13T11:29:15.263Z,14.3
2022-11-13T11:30:15.736Z,14.4
2022-11-13T11:31:15.172Z,14.4
2022-11-13T11:32:15.402Z,14.4
2022-11-13T11:33:15.699Z,10
2022-11-13T11:34:15.532Z,14.3
2022-11-13T11:35:15.394Z,14.2
2022-11-13T11:36:15.706Z,14.1
2022-11-13T11:37:15.168Z,14
2022-11-13T11:38:15.543Z,14
2022-11-13T11:39:15.295Z,14
2022-11-13T11:40:15.522Z,14
2022-11-13T11:41:20.758Z,14
2022-11-13T11:42:15.628Z,14
2022-11-13T11:43:14.987Z,13.9
2022-11-13T11:44:15.295Z,13.9
2022-11-13T11:45:14.956Z,13.8
2022-11-13T11:46:15.075Z,10
2022-11-13T11:47:14.506Z,10
2022-11-13T11:48:13.898Z,13.5
2022-11-13T11:49:15.416Z,13.4
2022-11-13T11:50:15.414Z,13.4
2022-11-13T11:51:15.874Z,13.4
2022-11-13T11:52:15.701Z,13.3
2022-11-13T11:53:15.584Z,13.2
2022-11-13T11:54:15.893Z,13.2
2022-11-13T11:55:15.778Z,13.2
2022-11-13T11:56:15.538Z,13.2
2022-11-13T11:57:15.101Z,13.2
2022-11-13T11:58:15.877Z,13.2
2022-11-13T11:59:14.573Z,13.2
2022-11-13T12:00:15.966Z,13.2
2022-11-13T12:01:15.236Z,13.2
2022-11-13T12:02:15.766Z,11
2022-11-13T12:03:15.632Z,12
2022-11-13T12:04:15.849Z,12.9
2022-11-13T12:05:22.362Z,12.7
2022-11-13T12:06:15.773Z,12.7
2022-11-13T12:07:15.156Z,12.7
2022-11-13T12:08:15.499Z,12.6
2022-11-13T12:09:15.748Z,12.6
2022-11-13T12:10:15.021Z,12.5
2022-11-13T12:11:15.107Z,12.5
2022-11-13T12:12:15.039Z,12.5
2022-11-13T12:13:15.076Z,12.4
2022-11-13T12:14:15.375Z,12.4
2022-11-13T12:15:15.568Z,12.4
2022-11-13T12:16:13.981Z,12.4
2022-11-13T12:17:21.139Z,12.4
2022-11-13T12:18:15.690Z,12.4
2022-11-13T12:19:15.950Z,12.4
2022-11-13T12:20:14.515Z,12.3
2022-11-13T12:21:15.174Z,12.3
2022-11-13T12:22:14.898Z,12.2
2022-11-13T12:23:15.319Z,12.2
2022-11-13T12:24:15.561Z,12.1
2022-11-13T12:25:15.037Z,12.1
2022-11-13T12:26:15.737Z,12
2022-11-13T12:27:15.627Z,12
2022-11-13T12:28:15.984Z,12
2022-11-13T12:29:15.199Z,12
2022-11-13T12:30:15.686Z,12
2022-11-13T12:31:15.834Z,12
2022-11-13T12:32:15.087Z,11.9
2022-11-13T12:33:15.826Z,11.9
2022-11-13T12:34:14.996Z,11.8
2022-11-13T12:35:15.382Z,11.8
2022-11-13T12:36:15.674Z,11.8
2022-11-13T12:37:14.980Z,11.8
2022-11-13T12:38:15.172Z,11.8
2022-11-13T12:39:14.836Z,11.7
2022-11-13T12:40:14.858Z,11.8
2022-11-13T12:41:15.568Z,11.8
2022-11-13T12:42:15.869Z,12
2022-11-13T12:43:15.391Z,12
2022-11-13T12:44:15.619Z,11.7
2022-11-13T12:45:15.297Z,11.7
2022-11-13T12:46:15.311Z,11.7
2022-11-13T12:47:15.502Z,12
2022-11-13T12:48:15.796Z,13
2022-11-13T12:49:15.120Z,11.7
2022-11-13T12:50:15.515Z,11.6
2022-11-13T12:51:15.844Z,11.6
2022-11-13T12:52:15.927Z,11.6
2022-11-13T12:53:15.305Z,11.6
2022-11-13T12:54:15.549Z,11.6
2022-11-13T12:55:15.811Z,11.6
2022-11-13T12:56:15.312Z,11.6
2022-11-13T12:57:15.344Z,11.6
2022-11-13T12:58:15.641Z,11.6
2022-11-13T12:59:34.838Z,11.6
2022-11-13T13:00:15.865Z,11.6
2022-11-13T13:01:15.742Z,11.6
2022-11-13T13:02:15.828Z,11.6
2022-11-13T13:03:15.134Z,11.6
2022-11-13T13:04:15.437Z,11.6
2022-11-13T13:05:14.303Z,11.6
2022-11-13T13:06:15.504Z,13
2022-11-13T13:07:15.686Z,13
2022-11-13T13:08:14.947Z,11.6
2022-11-13T13:09:15.208Z,13
2022-11-13T13:10:14.382Z,11.6
2022-11-13T13:11:15.486Z,11.6
2022-11-13T13:12:15.844Z,11.6
2022-11-13T13:13:18.300Z,11.6
2022-11-13T13:14:15.373Z,11.6
2022-11-13T13:15:15.669Z,11.6
2022-11-13T13:16:15.635Z,11.6
2022-11-13T13:17:15.249Z,11.6
2022-11-13T13:18:15.650Z,11.6
2022-11-13T13:19:14.952Z,11.6
2022-11-13T13:20:15.274Z,11.6
2022-11-13T13:21:15.229Z,13
2022-11-13T13:22:15.512Z,11.6
2022-11-13T13:23:15.891Z,11.6
2022-11-13T13:24:15.083Z,11.6
2022-11-13T13:25:18.682Z,11.6
2022-11-13T13:26:15.749Z,11.6
2022-11-13T13:27:15.083Z,11.5
2022-11-13T13:28:15.072Z,11.6
2022-11-13T13:29:15.562Z,13
2022-11-13T13:30:15.383Z,11.6
2022-11-13T13:31:14.889Z,11.6
2022-11-13T13:32:22.935Z,13
2022-11-13T13:33:15.875Z,11.6
2022-11-13T13:34:15.668Z,11.6
2022-11-13T13:35:15.707Z,12
2022-11-13T13:36:15.824Z,11.6
2022-11-13T13:37:15.351Z,11.6
2022-11-13T13:38:15.039Z,12
2022-11-13T13:39:15.097Z,11.6
2022-11-13T13:40:15.694Z,11.6
2022-11-13T13:41:15.192Z,11.5
2022-11-13T13:42:15.588Z,11.6
2022-11-13T13:43:15.937Z,11.6
2022-11-13T13:44:15.101Z,11.4
2022-11-13T13:45:17.674Z,11.5
2022-11-13T13:46:15.506Z,11.5
2022-11-13T13:47:16.029Z,11.5
2022-11-13T13:48:15.292Z,11.5
2022-11-13T13:49:15.549Z,11.5
2022-11-13T13:50:14.991Z,11.5
2022-11-13T13:51:15.307Z,11.5
2022-11-13T13:52:15.726Z,11.6
2022-11-13T13:53:15.106Z,12